Time;durP1;ratioP1;P1;durP2;ratioP2;P2;SDS_P1;SDS_P2;PMS_P1;PMS_P2;Temp;Humidity;BMP_temperature;BMP_pressure;BME280_temperature;BME280_humidity;BME280_pressure;Samples;Min_cycle;Max_cycle;Signal;HPM_P1;HPM_P2
2023/08/25 00:02:00;;;;;;;2.27;1.37;;;25.10;66.30;;;;;;6112568;23;20545;-69
2023/08/25 00:04:31;;;;;;;1.27;0.93;;;25.10;66.30;;;;;;6110669;22;20943;-69
2023/08/25 00:06:59;;;;;;;1.90;1.10;;;25.10;66.30;;;;;;6111256;23;20465;-68
2023/08/25 00:09:28;;;;;;;2.37;1.10;;;25.10;66.30;;;;;;6111781;23;20426;-68
2023/08/25 00:11:56;;;;;;;2.10;1.43;;;25.10;66.30;;;;;;6112351;23;20395;-68
2023/08/25 00:14:24;;;;;;;2.20;1.30;;;25.00;66.20;;;;;;6110613;23;20521;-69
2023/08/25 00:16:53;;;;;;;2.20;1.60;;;25.00;66.20;;;;;;6114302;23;20414;-67
2023/08/25 00:19:21;;;;;;;1.70;1.30;;;25.00;66.20;;;;;;6113601;22;20438;-69
2023/08/25 00:21:51;;;;;;;1.40;1.10;;;25.00;66.30;;;;;;6112185;23;20766;-69
2023/08/25 00:24:19;;;;;;;4.13;1.30;;;25.00;66.30;;;;;;6111136;23;20426;-69
2023/08/25 00:26:48;;;;;;;1.83;1.37;;;25.00;66.30;;;;;;6112676;23;20535;-69
2023/08/25 00:29:16;;;;;;;1.43;1.13;;;25.00;66.30;;;;;;6112902;23;20435;-68
2023/08/25 00:31:44;;;;;;;1.70;1.03;;;25.00;66.30;;;;;;6112010;23;20811;-69
2023/08/25 00:34:13;;;;;;;3.10;1.50;;;25.00;66.30;;;;;;6136450;23;20961;-69
2023/08/25 00:36:41;;;;;;;2.70;1.50;;;25.00;66.30;;;;;;6140176;23;20430;-68
2023/08/25 00:39:12;;;;;;;2.03;1.30;;;25.00;66.20;;;;;;6140993;23;20756;-69
2023/08/25 00:41:41;;;;;;;1.67;1.37;;;25.00;66.30;;;;;;6141699;23;20911;-68
2023/08/25 00:44:09;;;;;;;1.10;1.00;;;25.00;66.30;;;;;;6140645;23;20460;-69
2023/08/25 00:46:38;;;;;;;2.50;1.43;;;25.00;66.30;;;;;;6142259;23;20483;-69
2023/08/25 00:49:07;;;;;;;1.93;1.30;;;24.90;66.20;;;;;;6141202;23;20433;-67
2023/08/25 00:51:36;;;;;;;1.47;1.27;;;24.90;66.30;;;;;;6140663;23;20389;-68
2023/08/25 00:54:05;;;;;;;1.57;1.03;;;24.90;66.30;;;;;;6140242;23;20768;-68
2023/08/25 00:56:35;;;;;;;1.77;1.40;;;24.90;66.30;;;;;;6142175;23;20720;-69
2023/08/25 00:59:04;;;;;;;2.70;1.67;;;24.90;66.30;;;;;;6140193;23;20438;-68
2023/08/25 01:01:32;;;;;;;3.23;1.17;;;24.90;66.30;;;;;;6141658;23;20414;-69
2023/08/25 01:04:01;;;;;;;3.00;1.50;;;24.90;66.30;;;;;;6140420;23;20433;-69
2023/08/25 01:06:29;;;;;;;2.30;1.50;;;24.90;66.20;;;;;;6140823;23;20410;-69
2023/08/25 01:08:58;;;;;;;1.63;1.37;;;24.90;66.30;;;;;;6140670;23;20433;-69
2023/08/25 01:11:37;;;;;;;1.63;1.53;;;24.90;66.30;;;;;;6141890;23;20402;-68
2023/08/25 01:14:11;;;;;;;2.10;1.10;;;24.80;66.30;;;;;;6140910;23;20848;-68
2023/08/25 01:16:49;;;;;;;2.60;1.70;;;24.80;66.30;;;;;;6141532;23;20774;-69
2023/08/25 01:19:44;;;;;;;1.63;1.43;;;24.80;66.30;;;;;;6141417;23;20475;-68
2023/08/25 01:22:17;;;;;;;3.03;1.57;;;24.80;66.30;;;;;;6141219;23;20496;-69
2023/08/25 01:24:49;;;;;;;1.67;1.30;;;24.80;66.30;;;;;;6110999;23;20421;-68
2023/08/25 01:27:20;;;;;;;2.00;1.40;;;24.80;66.50;;;;;;6112335;23;20891;-68
2023/08/25 01:29:48;;;;;;;1.30;1.20;;;24.80;66.50;;;;;;6111177;23;20450;-68
2023/08/25 01:32:19;;;;;;;1.43;1.33;;;24.80;66.50;;;;;;6113953;23;20397;-69
2023/08/25 01:34:47;;;;;;;1.53;1.10;;;24.80;66.50;;;;;;6265019;22;20496;-69
2023/08/25 01:37:24;;;;;;;2.53;1.40;;;24.80;66.40;;;;;;6266378;22;20426;-68
2023/08/25 01:39:58;;;;;;;2.90;1.40;;;24.80;66.40;;;;;;6112094;23;20405;-69
2023/08/25 01:42:30;;;;;;;1.77;1.17;;;24.80;66.40;;;;;;6112264;23;20452;-69
2023/08/25 01:45:00;;;;;;;1.57;1.37;;;24.80;66.40;;;;;;6112238;23;20429;-69
2023/08/25 01:47:31;;;;;;;2.03;1.07;;;24.80;66.50;;;;;;6112337;23;20426;-69
2023/08/25 01:50:00;;;;;;;1.70;1.43;;;24.80;66.40;;;;;;6111756;23;20378;-68
2023/08/25 01:52:29;;;;;;;1.20;1.00;;;24.70;66.30;;;;;;6087596;23;20403;-70
2023/08/25 01:54:58;;;;;;;1.83;1.10;;;24.80;66.50;;;;;;6111305;23;20520;-69
2023/08/25 01:57:28;;;;;;;2.70;1.40;;;24.70;66.30;;;;;;6112294;23;20526;-70
2023/08/25 01:59:57;;;;;;;1.13;1.00;;;24.70;66.40;;;;;;6140845;23;20405;-67
2023/08/25 02:02:25;;;;;;;1.63;1.47;;;24.70;66.30;;;;;;6143183;23;20425;-69
2023/08/25 02:04:56;;;;;;;1.73;1.27;;;24.80;66.40;;;;;;6144375;23;20918;-69
2023/08/25 02:07:24;;;;;;;1.30;1.03;;;24.70;66.30;;;;;;6144831;23;20417;-69
2023/08/25 02:09:54;;;;;;;2.10;1.27;;;24.70;66.30;;;;;;6144937;23;20377;-69
2023/08/25 02:12:23;;;;;;;1.30;1.20;;;24.70;66.40;;;;;;6144557;23;20875;-68
2023/08/25 02:14:53;;;;;;;1.70;1.53;;;24.70;66.40;;;;;;6144026;23;20890;-69
2023/08/25 02:17:21;;;;;;;2.00;1.30;;;24.80;66.40;;;;;;6144939;23;20471;-69
2023/08/25 02:19:50;;;;;;;1.47;1.37;;;24.70;66.40;;;;;;6268684;22;20425;-70
2023/08/25 02:22:18;;;;;;;2.00;1.47;;;24.70;66.30;;;;;;6269151;22;20419;-69
2023/08/25 02:24:47;;;;;;;1.70;1.40;;;24.70;66.30;;;;;;6114048;23;20422;-68
2023/08/25 02:27:15;;;;;;;1.83;1.40;;;24.70;66.30;;;;;;6115975;23;20415;-68
2023/08/25 02:29:44;;;;;;;2.33;1.20;;;24.70;66.50;;;;;;6114271;23;20434;-68
2023/08/25 02:32:14;;;;;;;1.20;1.10;;;24.70;66.50;;;;;;6115428;23;20401;-68
2023/08/25 02:34:42;;;;;;;1.97;1.30;;;24.60;66.30;;;;;;6114532;22;20434;-69
2023/08/25 02:37:10;;;;;;;1.73;1.30;;;24.60;66.40;;;;;;6114873;23;20764;-69
2023/08/25 02:39:39;;;;;;;2.00;1.07;;;24.60;66.40;;;;;;6114779;23;20496;-69
2023/08/25 02:42:07;;;;;;;1.57;1.30;;;24.60;66.40;;;;;;6114669;23;20406;-68
2023/08/25 02:44:37;;;;;;;1.50;1.13;;;24.60;67.70;;;;;;6114513;22;20457;-69
2023/08/25 02:47:06;;;;;;;1.33;1.03;;;24.60;66.40;;;;;;6116725;23;20960;-68
2023/08/25 02:49:38;;;;;;;1.60;1.10;;;24.60;66.40;;;;;;6114959;23;20434;-68
2023/08/25 02:52:07;;;;;;;1.97;1.30;;;24.60;66.40;;;;;;6114310;23;20413;-69
2023/08/25 02:54:35;;;;;;;1.60;1.10;;;24.70;66.40;;;;;;6113796;22;20493;-68
2023/08/25 02:57:04;;;;;;;2.00;1.53;;;24.60;66.30;;;;;;6115343;23;20419;-68
2023/08/25 02:59:32;;;;;;;1.70;1.30;;;24.60;66.30;;;;;;6113922;23;20517;-68
2023/08/25 03:02:02;;;;;;;1.00;0.90;;;24.60;66.20;;;;;;6114744;23;20402;-70
2023/08/25 03:04:31;;;;;;;1.97;1.57;;;24.60;66.30;;;;;;6111398;22;20473;-69
2023/08/25 03:07:00;;;;;;;1.70;1.43;;;24.60;66.30;;;;;;6112356;23;20430;-69
2023/08/25 03:09:29;;;;;;;2.07;1.20;;;24.60;66.30;;;;;;6110592;23;20460;-68
2023/08/25 03:11:57;;;;;;;1.47;1.30;;;24.60;66.10;;;;;;6112060;23;20402;-68
2023/08/25 03:14:26;;;;;;;2.83;1.53;;;24.60;66.10;;;;;;6111230;23;20449;-67
2023/08/25 03:16:56;;;;;;;1.73;1.17;;;24.60;66.20;;;;;;6112618;23;20916;-70
2023/08/25 03:19:24;;;;;;;1.50;1.33;;;24.60;66.10;;;;;;6112544;22;20458;-69
2023/08/25 03:21:54;;;;;;;1.30;1.20;;;24.60;66.10;;;;;;6111931;23;20395;-68
2023/08/25 03:24:23;;;;;;;1.40;1.20;;;24.60;66.10;;;;;;6111240;23;21028;-68
2023/08/25 03:26:52;;;;;;;1.23;1.10;;;24.60;66.20;;;;;;6113181;23;20414;-68
2023/08/25 03:29:20;;;;;;;1.70;1.43;;;24.60;66.20;;;;;;6112103;23;20738;-69
2023/08/25 03:31:50;;;;;;;1.43;1.27;;;24.60;66.10;;;;;;6113454;23;20405;-69
2023/08/25 03:34:18;;;;;;;1.60;1.30;;;24.60;66.20;;;;;;6111432;22;20441;-69
2023/08/25 03:36:48;;;;;;;1.90;1.70;;;24.60;66.10;;;;;;6111847;23;20473;-68
2023/08/25 03:39:17;;;;;;;1.37;1.20;;;24.60;66.20;;;;;;6112619;23;20430;-68
2023/08/25 03:41:47;;;;;;;1.70;1.17;;;24.50;66.10;;;;;;6113423;23;20386;-69
2023/08/25 03:44:16;;;;;;;1.60;1.30;;;24.50;66.00;;;;;;6111468;23;20446;-69
2023/08/25 03:46:45;;;;;;;1.33;1.17;;;24.50;66.20;;;;;;6112634;23;20970;-68
2023/08/25 03:49:13;;;;;;;1.50;1.20;;;24.50;66.30;;;;;;6112280;22;20458;-68
2023/08/25 03:51:42;;;;;;;1.40;1.17;;;24.50;66.30;;;;;;6112121;23;20406;-68
2023/08/25 03:54:12;;;;;;;1.60;1.50;;;24.50;66.30;;;;;;6112057;23;20434;-69
2023/08/25 03:56:41;;;;;;;1.90;1.30;;;24.50;66.30;;;;;;6113092;23;20402;-69
2023/08/25 03:59:12;;;;;;;1.50;1.20;;;24.50;66.30;;;;;;6110743;23;20430;-69
2023/08/25 04:01:40;;;;;;;1.47;1.13;;;24.50;66.30;;;;;;6112450;23;20891;-68
2023/08/25 04:04:09;;;;;;;2.37;1.40;;;24.50;66.20;;;;;;6112327;23;20438;-69
2023/08/25 04:06:37;;;;;;;1.90;1.20;;;24.50;66.30;;;;;;6112261;23;20410;-68
2023/08/25 04:09:06;;;;;;;1.63;1.10;;;24.50;66.20;;;;;;6112181;23;20434;-68
2023/08/25 04:11:35;;;;;;;2.83;1.43;;;24.50;66.30;;;;;;6112435;23;20406;-67
2023/08/25 04:14:04;;;;;;;2.33;1.40;;;24.50;66.20;;;;;;6110958;23;20439;-68
2023/08/25 04:16:37;;;;;;;1.93;1.50;;;24.40;66.20;;;;;;6112553;23;20840;-68
2023/08/25 04:19:06;;;;;;;1.60;1.20;;;24.50;66.50;;;;;;6112155;23;20996;-68
2023/08/25 04:21:35;;;;;;;1.90;1.50;;;24.40;66.40;;;;;;6112150;23;20387;-69
2023/08/25 04:24:04;;;;;;;3.50;1.70;;;24.50;66.60;;;;;;6111346;23;20453;-69
2023/08/25 04:26:32;;;;;;;2.17;1.57;;;24.50;66.50;;;;;;6112867;23;20750;-69
2023/08/25 04:29:04;;;;;;;2.50;1.37;;;24.50;66.70;;;;;;6112259;23;20435;-67
2023/08/25 04:31:32;;;;;;;1.70;1.60;;;24.50;66.60;;;;;;6111662;23;20382;-70
2023/08/25 04:34:05;;;;;;;2.60;1.80;;;24.40;66.60;;;;;;6111542;23;21339;-68
2023/08/25 04:36:36;;;;;;;1.90;1.70;;;24.40;66.70;;;;;;6111784;23;20406;-70
2023/08/25 04:39:05;;;;;;;1.90;1.50;;;24.40;66.60;;;;;;6133433;23;20434;-68
2023/08/25 04:41:36;;;;;;;1.60;1.33;;;24.40;66.70;;;;;;6141769;23;20394;-69
2023/08/25 04:44:06;;;;;;;2.00;1.40;;;24.40;66.70;;;;;;6139856;23;20442;-69
2023/08/25 04:46:34;;;;;;;2.23;1.63;;;24.40;66.80;;;;;;6142196;23;20401;-67
2023/08/25 04:49:04;;;;;;;2.10;1.57;;;24.40;66.80;;;;;;6141713;23;20528;-68
2023/08/25 04:51:37;;;;;;;1.63;1.27;;;24.40;66.80;;;;;;6141551;23;20382;-68
2023/08/25 04:54:08;;;;;;;1.50;1.20;;;24.30;66.70;;;;;;6141245;23;20958;-69
2023/08/25 04:56:40;;;;;;;1.70;1.50;;;24.40;66.80;;;;;;6142911;23;20453;-68
2023/08/25 04:59:08;;;;;;;1.23;1.10;;;24.30;66.80;;;;;;6140915;23;20437;-69
2023/08/25 05:01:37;;;;;;;1.83;1.40;;;24.40;66.80;;;;;;6143415;23;20390;-68
2023/08/25 05:04:08;;;;;;;1.87;1.40;;;24.40;66.80;;;;;;6140129;23;20440;-67
2023/08/25 05:06:36;;;;;;;1.87;1.53;;;24.40;66.80;;;;;;6141506;23;20473;-68
2023/08/25 05:09:05;;;;;;;2.67;1.80;;;24.30;66.80;;;;;;6141726;23;20512;-68
2023/08/25 05:11:34;;;;;;;1.60;1.47;;;24.30;66.80;;;;;;6142336;23;20726;-68
2023/08/25 05:14:03;;;;;;;2.20;1.43;;;24.30;66.80;;;;;;6140881;23;20442;-68
2023/08/25 05:16:31;;;;;;;2.43;1.80;;;24.30;66.80;;;;;;6141882;23;20393;-68
2023/08/25 05:19:09;;;;;;;3.30;1.63;;;24.30;66.80;;;;;;6140691;23;20445;-66
2023/08/25 05:21:37;;;;;;;2.60;1.60;;;24.30;66.90;;;;;;6141136;23;20362;-68
2023/08/25 05:24:19;;;;;;;2.90;1.23;;;24.30;66.90;;;;;;6140012;23;20445;-67
2023/08/25 05:26:51;;;;;;;2.67;1.43;;;24.30;67.00;;;;;;6142590;23;20818;-68
2023/08/25 05:29:21;;;;;;;1.83;1.30;;;24.30;66.90;;;;;;6141435;23;20441;-69
2023/08/25 05:31:49;;;;;;;2.33;2.13;;;24.30;67.00;;;;;;6140949;23;20363;-68
2023/08/25 05:34:42;;;;;;;2.90;1.70;;;24.30;67.00;;;;;;6106022;23;20446;-68
2023/08/25 05:37:10;;;;;;;1.60;1.50;;;24.30;67.00;;;;;;6111746;23;20426;-68
2023/08/25 05:39:39;;;;;;;1.93;1.43;;;24.30;67.00;;;;;;6260419;22;20769;-69
2023/08/25 05:42:09;;;;;;;1.50;1.30;;;24.30;67.10;;;;;;6298417;22;20855;-69
2023/08/25 05:44:37;;;;;;;2.70;1.43;;;24.30;67.20;;;;;;6296384;22;20832;-67
2023/08/25 05:47:07;;;;;;;2.23;1.30;;;24.30;67.10;;;;;;6298835;22;20408;-68
2023/08/25 05:49:35;;;;;;;2.27;1.40;;;24.20;67.10;;;;;;6296759;22;20742;-67
2023/08/25 05:52:06;;;;;;;3.30;1.60;;;24.20;67.00;;;;;;6297071;22;20380;-68
2023/08/25 05:54:34;;;;;;;1.73;1.27;;;24.20;67.10;;;;;;6296915;22;20660;-67
2023/08/25 05:57:05;;;;;;;2.20;1.20;;;24.20;67.30;;;;;;6297525;22;20409;-68
2023/08/25 05:59:34;;;;;;;1.47;1.20;;;24.20;67.30;;;;;;6295445;22;20429;-67
2023/08/25 06:02:02;;;;;;;4.10;1.90;;;24.20;67.50;;;;;;6297141;22;20400;-68
2023/08/25 06:04:31;;;;;;;1.90;1.30;;;24.20;67.70;;;;;;6295932;22;20436;-69
2023/08/25 06:06:59;;;;;;;1.90;1.70;;;24.20;67.70;;;;;;6296904;22;20401;-69
2023/08/25 06:09:29;;;;;;;1.30;1.20;;;24.20;67.40;;;;;;6296896;22;20429;-68
2023/08/25 06:11:57;;;;;;;3.00;1.73;;;24.20;67.40;;;;;;6298187;22;20411;-69
2023/08/25 06:14:25;;;;;;;2.27;1.70;;;24.20;67.80;;;;;;6295231;22;20433;-69
2023/08/25 06:16:53;;;;;;;2.00;1.70;;;24.20;67.90;;;;;;6349396;22;20416;-68
2023/08/25 06:19:22;;;;;;;1.80;1.57;;;24.20;67.90;;;;;;6296865;22;20822;-67
2023/08/25 06:21:50;;;;;;;2.43;2.20;;;24.20;67.90;;;;;;6297055;22;20389;-69
2023/08/25 06:24:18;;;;;;;1.90;1.70;;;24.10;67.80;;;;;;6295841;22;20455;-68
2023/08/25 06:26:48;;;;;;;2.30;1.57;;;24.20;67.90;;;;;;6297285;22;20440;-68
2023/08/25 06:29:17;;;;;;;3.40;2.57;;;24.10;67.80;;;;;;6295675;22;20490;-67
2023/08/25 06:31:45;;;;;;;8.83;3.80;;;24.10;69.80;;;;;;6296831;22;20419;-67
2023/08/25 06:34:14;;;;;;;4.13;3.47;;;24.10;74.80;;;;;;6295827;22;20425;-66
2023/08/25 06:36:42;;;;;;;4.33;3.23;;;24.00;73.40;;;;;;6297919;22;20428;-67
2023/08/25 06:39:11;;;;;;;5.10;2.43;;;24.00;72.80;;;;;;6295842;22;20432;-66
2023/08/25 06:41:40;;;;;;;3.43;3.13;;;24.00;72.30;;;;;;6298913;22;20396;-67
2023/08/25 06:44:11;;;;;;;3.10;2.53;;;24.00;71.80;;;;;;6295080;22;20439;-68
2023/08/25 06:46:39;;;;;;;3.90;2.70;;;24.00;71.50;;;;;;6298222;22;20436;-68
2023/08/25 06:49:08;;;;;;;3.93;2.30;;;24.00;71.10;;;;;;6300586;22;20482;-70
2023/08/25 06:51:36;;;;;;;3.73;2.33;;;24.10;71.20;;;;;;6300467;22;20734;-67
2023/08/25 06:54:05;;;;;;;3.73;2.30;;;24.10;71.20;;;;;;6300018;22;20806;-68
2023/08/25 06:56:35;;;;;;;2.97;2.23;;;24.10;71.00;;;;;;6300424;22;20374;-68
2023/08/25 06:59:03;;;;;;;3.13;2.83;;;24.10;71.00;;;;;;6299696;22;20429;-67
2023/08/25 07:01:32;;;;;;;3.13;2.37;;;24.10;71.10;;;;;;6302469;22;20395;-67
2023/08/25 07:04:01;;;;;;;2.90;1.80;;;24.00;70.70;;;;;;6300298;22;20425;-67
2023/08/25 07:06:29;;;;;;;2.47;2.27;;;24.00;70.30;;;;;;6300790;22;20945;-68
2023/08/25 07:08:58;;;;;;;2.80;2.40;;;24.00;70.50;;;;;;6300223;22;20433;-67
2023/08/25 07:11:27;;;;;;;3.83;2.47;;;24.00;70.40;;;;;;6300625;22;20384;-67
2023/08/25 07:13:55;;;;;;;2.30;2.00;;;24.00;70.50;;;;;;6299360;22;20953;-68
2023/08/25 07:16:24;;;;;;;2.47;2.13;;;24.00;70.50;;;;;;6300197;22;20397;-66
2023/08/25 07:18:54;;;;;;;2.70;2.50;;;24.00;70.80;;;;;;6299324;22;20478;-68
2023/08/25 07:21:23;;;;;;;2.50;2.30;;;24.00;70.90;;;;;;6300172;22;20403;-68
2023/08/25 07:23:51;;;;;;;4.40;2.77;;;24.00;70.90;;;;;;6299667;22;20421;-68
2023/08/25 07:26:19;;;;;;;2.30;2.10;;;24.00;70.80;;;;;;6300873;22;20431;-67
2023/08/25 07:28:48;;;;;;;2.17;1.93;;;24.00;70.70;;;;;;6298409;22;21120;-68
2023/08/25 07:31:16;;;;;;;3.13;2.13;;;24.00;70.60;;;;;;6300265;22;20500;-68
2023/08/25 07:33:45;;;;;;;5.73;2.27;;;24.00;70.90;;;;;;6273606;22;20428;-68
2023/08/25 07:36:14;;;;;;;3.70;2.23;;;24.00;70.60;;;;;;6299890;22;20491;-68
2023/08/25 07:38:43;;;;;;;4.40;2.07;;;24.00;70.60;;;;;;6300069;22;20432;-67
2023/08/25 07:41:15;;;;;;;2.00;1.80;;;24.00;71.00;;;;;;6301375;22;20781;-67
2023/08/25 07:43:44;;;;;;;2.43;2.23;;;24.00;71.00;;;;;;6298817;22;20673;-68
2023/08/25 07:46:14;;;;;;;2.40;2.20;;;24.00;70.90;;;;;;6301144;22;20484;-68
2023/08/25 07:48:42;;;;;;;2.20;2.00;;;24.00;70.60;;;;;;6299703;22;20517;-67
2023/08/25 07:51:11;;;;;;;3.00;2.00;;;24.00;70.60;;;;;;6300532;22;20392;-69
2023/08/25 07:53:45;;;;;;;4.00;2.00;;;24.00;70.50;;;;;;6299635;22;21020;-67
2023/08/25 07:56:13;;;;;;;2.50;1.97;;;24.00;70.20;;;;;;6300808;22;20924;-69
2023/08/25 07:58:42;;;;;;;2.87;1.83;;;24.00;70.10;;;;;;6299326;22;20437;-67
2023/08/25 08:01:11;;;;;;;2.50;2.20;;;24.00;70.00;;;;;;6298502;22;20393;-68
2023/08/25 08:03:39;;;;;;;2.20;1.60;;;24.00;69.90;;;;;;6297250;22;20964;-67
2023/08/25 08:06:08;;;;;;;2.50;1.80;;;23.90;69.70;;;;;;6298304;22;20444;-68
2023/08/25 08:08:36;;;;;;;2.47;1.97;;;24.00;69.80;;;;;;6298515;22;20722;-67
2023/08/25 08:11:09;;;;;;;2.07;1.70;;;23.90;69.70;;;;;;6298958;22;20393;-66
2023/08/25 08:13:39;;;;;;;2.33;1.67;;;23.90;69.70;;;;;;6296748;22;20749;-67
2023/08/25 08:16:07;;;;;;;3.33;2.10;;;23.90;69.60;;;;;;6298382;22;20454;-67
2023/08/25 08:18:36;;;;;;;3.07;2.10;;;23.90;70.00;;;;;;6298811;22;20482;-68
2023/08/25 08:21:04;;;;;;;3.00;2.30;;;23.90;70.10;;;;;;6298069;22;20397;-68
2023/08/25 08:23:32;;;;;;;4.37;2.47;;;23.90;70.80;;;;;;6297307;22;20971;-68
2023/08/25 08:26:03;;;;;;;2.90;1.93;;;23.90;70.90;;;;;;6297846;22;20450;-67
2023/08/25 08:28:32;;;;;;;4.23;2.80;;;23.90;70.80;;;;;;6298843;22;20990;-69
2023/08/25 08:31:05;;;;;;;2.97;2.23;;;23.90;70.80;;;;;;6298150;22;20389;-67
2023/08/25 08:33:33;;;;;;;4.17;2.97;;;23.80;70.30;;;;;;6298754;22;20909;-68
2023/08/25 08:36:02;;;;;;;5.63;2.60;;;23.90;70.80;;;;;;6297577;22;20474;-68
2023/08/25 08:38:33;;;;;;;2.63;2.30;;;23.90;70.90;;;;;;6297350;22;20432;-68
2023/08/25 08:41:02;;;;;;;3.80;2.37;;;23.90;70.50;;;;;;6298892;22;20455;-67
2023/08/25 08:43:38;;;;;;;2.30;2.10;;;23.90;70.70;;;;;;6298319;22;20409;-69
2023/08/25 08:46:08;;;;;;;4.00;2.60;;;23.80;71.00;;;;;;6298311;22;20933;-68
2023/08/25 08:48:37;;;;;;;2.40;2.20;;;23.90;71.20;;;;;;6298448;22;20459;-67
2023/08/25 08:51:07;;;;;;;4.40;2.50;;;23.80;71.60;;;;;;6298176;22;20397;-68
2023/08/25 08:53:36;;;;;;;4.30;2.60;;;23.80;70.90;;;;;;6299023;22;21258;-68
2023/08/25 08:56:05;;;;;;;2.53;2.33;;;23.80;71.50;;;;;;6298841;22;20428;-66
2023/08/25 08:58:35;;;;;;;3.50;2.43;;;23.80;72.10;;;;;;6298139;22;20506;-68
2023/08/25 09:01:05;;;;;;;2.73;2.10;;;23.80;71.40;;;;;;6297741;22;20835;-67
2023/08/25 09:03:35;;;;;;;2.60;2.07;;;23.80;71.40;;;;;;6349755;22;20390;-68
2023/08/25 09:06:04;;;;;;;2.67;2.37;;;23.80;71.60;;;;;;6298267;22;20393;-69
2023/08/25 09:08:34;;;;;;;5.93;2.23;;;23.80;71.30;;;;;;6297569;22;20541;-68
2023/08/25 09:11:04;;;;;;;2.77;2.27;;;23.80;71.40;;;;;;6298150;22;20400;-67
2023/08/25 09:13:37;;;;;;;1.70;1.47;;;23.80;71.20;;;;;;6296824;22;20431;-67
2023/08/25 09:16:12;;;;;;;3.13;2.00;;;23.80;71.20;;;;;;6297072;22;20427;-68
2023/08/25 09:18:41;;;;;;;2.00;1.80;;;23.80;71.20;;;;;;6297336;22;20433;-70
2023/08/25 09:21:17;;;;;;;2.10;1.90;;;23.80;70.70;;;;;;6297195;22;20413;-68
2023/08/25 09:23:53;;;;;;;2.70;2.13;;;23.80;70.70;;;;;;6297046;22;20433;-67
2023/08/25 09:26:22;;;;;;;2.47;2.27;;;23.80;70.80;;;;;;6297250;22;20416;-68
2023/08/25 09:28:54;;;;;;;2.40;2.20;;;23.80;70.70;;;;;;6348915;22;20451;-66
2023/08/25 09:31:23;;;;;;;2.07;1.87;;;23.80;71.10;;;;;;6297278;22;20419;-69
2023/08/25 09:33:58;;;;;;;1.60;1.50;;;23.80;71.00;;;;;;6296807;22;20930;-69
2023/08/25 09:36:27;;;;;;;2.20;2.00;;;23.80;70.80;;;;;;6296151;22;20466;-67
2023/08/25 09:38:55;;;;;;;4.25;3.67;;;23.80;71.70;;;;;;6296677;22;20391;-67
2023/08/25 09:41:29;;;;;;;3.57;3.27;;;23.80;77.90;;;;;;6297740;22;20166;-69
2023/08/25 09:44:00;;;;;;;3.47;2.80;;;23.80;76.80;;;;;;6297496;22;20432;-69
2023/08/25 09:46:29;;;;;;;4.63;3.40;;;23.80;76.30;;;;;;6297683;22;20430;-69
2023/08/25 09:49:02;;;;;;;3.30;2.13;;;23.80;75.70;;;;;;6297630;22;20428;-67
2023/08/25 09:51:35;;;;;;;3.47;2.80;;;23.80;74.80;;;;;;6297105;22;20991;-67
2023/08/25 09:54:08;;;;;;;3.03;2.47;;;23.80;74.10;;;;;;6296894;22;20432;-68
2023/08/25 09:56:38;;;;;;;2.50;1.97;;;23.80;73.90;;;;;;6350841;22;20373;-67
2023/08/25 09:59:09;;;;;;;2.67;2.30;;;23.80;73.50;;;;;;6296924;22;20509;-68
2023/08/25 10:01:39;;;;;;;3.93;2.57;;;23.80;73.50;;;;;;6298024;22;20389;-69
2023/08/25 10:04:07;;;;;;;4.00;3.27;;;23.80;75.20;;;;;;6296731;22;20421;-67
2023/08/25 10:06:38;;;;;;;2.90;2.60;;;23.80;74.70;;;;;;6297552;22;20446;-68
2023/08/25 10:09:07;;;;;;;3.77;2.27;;;23.80;73.80;;;;;;6297037;22;20441;-69
2023/08/25 10:11:39;;;;;;;3.03;2.27;;;23.80;73.50;;;;;;6297607;22;20401;-68
2023/08/25 10:14:11;;;;;;;2.67;2.47;;;23.80;73.40;;;;;;6296142;22;20968;-67
2023/08/25 10:16:42;;;;;;;3.30;2.40;;;23.80;73.40;;;;;;6297933;22;20377;-67
2023/08/25 10:19:14;;;;;;;2.93;2.73;;;23.70;72.90;;;;;;6298405;22;20440;-68
2023/08/25 10:21:44;;;;;;;2.30;2.10;;;23.70;73.00;;;;;;6296559;22;20400;-68
2023/08/25 10:24:15;;;;;;;2.60;2.00;;;23.70;72.70;;;;;;6296312;22;20435;-68
2023/08/25 10:26:44;;;;;;;4.67;2.80;;;23.80;72.60;;;;;;6299493;22;20470;-68
2023/08/25 10:29:17;;;;;;;2.53;2.10;;;23.70;72.70;;;;;;6297041;22;20421;-66
2023/08/25 10:31:49;;;;;;;3.33;2.23;;;23.70;72.90;;;;;;6296679;22;20381;-67
2023/08/25 10:34:35;;;;;;;2.90;2.50;;;23.70;72.80;;;;;;6296097;22;20425;-66
2023/08/25 10:37:05;;;;;;;3.83;1.93;;;23.70;73.00;;;;;;6295614;22;20416;-67
2023/08/25 10:39:49;;;;;;;3.50;2.20;;;23.70;72.90;;;;;;6296824;22;20436;-66
2023/08/25 10:42:26;;;;;;;4.57;2.07;;;23.70;72.60;;;;;;6296651;22;20383;-66
2023/08/25 10:44:57;;;;;;;4.20;2.20;;;23.70;72.50;;;;;;6294871;22;20475;-67
2023/08/25 10:47:27;;;;;;;2.40;2.00;;;23.70;72.60;;;;;;6298362;22;20421;-67
2023/08/25 10:50:00;;;;;;;2.30;2.10;;;23.70;73.30;;;;;;6294896;22;20981;-67
2023/08/25 10:52:28;;;;;;;2.47;1.80;;;23.70;73.10;;;;;;6296832;22;20386;-66
2023/08/25 10:54:56;;;;;;;2.13;1.50;;;23.70;74.30;;;;;;6296605;22;20457;-67
2023/08/25 10:57:42;;;;;;;2.13;1.57;;;23.60;74.50;;;;;;6297362;22;20405;-68
2023/08/25 11:00:33;;;;;;;4.10;1.87;;;23.60;74.60;;;;;;6296968;22;20748;-67
2023/08/25 11:03:03;;;;;;;2.87;2.00;;;23.60;73.10;;;;;;6296401;22;20395;-67
2023/08/25 11:05:40;;;;;;;2.60;1.90;;;23.60;73.50;;;;;;6296186;22;20431;-68
2023/08/25 11:08:25;;;;;;;3.00;2.27;;;23.60;73.60;;;;;;6296480;22;20775;-67
2023/08/25 11:11:13;;;;;;;2.73;2.20;;;23.60;74.20;;;;;;6296918;22;20393;-68
2023/08/25 11:13:43;;;;;;;2.80;1.73;;;23.60;72.70;;;;;;6296483;22;20444;-66
2023/08/25 11:16:14;;;;;;;2.37;2.17;;;23.60;74.20;;;;;;6348818;22;20374;-72
2023/08/25 11:18:43;;;;;;;4.45;2.40;;;23.60;73.00;;;;;;6295760;22;20405;-72
2023/08/25 11:21:14;;;;;;;3.03;2.43;;;23.50;83.30;;;;;;6296807;22;20216;-73
2023/08/25 11:23:43;;;;;;;4.03;2.07;;;23.50;81.60;;;;;;6348769;22;20436;-72
2023/08/25 11:26:16;;;;;;;3.90;2.60;;;23.50;80.70;;;;;;6300616;22;20403;-72
2023/08/25 11:28:48;;;;;;;3.10;2.27;;;23.50;80.40;;;;;;6299253;22;20475;-72
2023/08/25 11:31:20;;;;;;;2.43;1.70;;;23.50;79.50;;;;;;6300183;22;20380;-72
2023/08/25 11:33:51;;;;;;;2.40;2.17;;;23.50;79.30;;;;;;6297453;22;20528;-73
2023/08/25 11:36:23;;;;;;;3.03;2.00;;;23.50;79.10;;;;;;6298555;22;20400;-72
2023/08/25 11:38:51;;;;;;;2.50;2.00;;;23.60;78.70;;;;;;6296117;22;20918;-72
2023/08/25 11:41:23;;;;;;;2.80;2.17;;;23.50;80.30;;;;;;6298405;22;20479;-72
2023/08/25 11:43:51;;;;;;;2.00;1.80;;;23.50;80.40;;;;;;6298052;22;20435;-67
2023/08/25 11:46:21;;;;;;;2.90;2.10;;;23.50;79.40;;;;;;6298161;22;20384;-67
2023/08/25 11:48:50;;;;;;;3.10;2.30;;;23.50;78.80;;;;;;6297938;22;20428;-73
2023/08/25 11:51:19;;;;;;;2.23;1.97;;;23.50;78.60;;;;;;6297214;22;20426;-72
2023/08/25 11:53:48;;;;;;;2.33;2.13;;;23.50;78.20;;;;;;6297710;22;20429;-72
2023/08/25 11:56:19;;;;;;;2.90;2.37;;;23.50;78.40;;;;;;6298128;22;20385;-73
2023/08/25 11:58:48;;;;;;;3.40;2.60;;;23.50;78.80;;;;;;6296614;22;20457;-72
2023/08/25 12:01:17;;;;;;;3.40;2.43;;;23.50;78.80;;;;;;6300138;22;20389;-72
2023/08/25 12:03:47;;;;;;;3.73;1.90;;;23.50;78.40;;;;;;6296418;22;20456;-72
2023/08/25 12:06:16;;;;;;;2.40;2.20;;;23.50;77.80;;;;;;6298997;22;20496;-71
2023/08/25 12:08:49;;;;;;;6.27;2.73;;;23.50;78.40;;;;;;6299135;22;20433;-72
2023/08/25 12:11:17;;;;;;;7.30;4.17;;;23.50;78.70;;;;;;6298783;22;20381;-72
2023/08/25 12:13:48;;;;;;;5.37;4.90;;;23.50;81.50;;;;;;6297520;22;20409;-72
2023/08/25 12:16:19;;;;;;;7.47;6.07;;;23.50;84.80;;;;;;6294892;22;20413;-73
2023/08/25 12:18:52;;;;;;;4.60;4.07;;;23.50;87.60;;;;;;6292840;22;20205;-73
2023/08/25 12:21:21;;;;;;;6.00;5.50;;;23.50;86.30;;;;;;6294181;22;20607;-72
2023/08/25 12:23:50;;;;;;;5.67;4.63;;;23.50;86.30;;;;;;6296594;22;20713;-72
2023/08/25 12:26:19;;;;;;;10.00;4.53;;;23.50;86.40;;;;;;6298631;22;20408;-72
2023/08/25 12:28:48;;;;;;;6.37;4.90;;;23.50;86.40;;;;;;6294141;22;20440;-71
2023/08/25 12:31:16;;;;;;;6.77;4.50;;;23.50;86.70;;;;;;6298516;22;20389;-72
2023/08/25 12:33:44;;;;;;;4.67;4.27;;;23.60;86.60;;;;;;6297860;22;20374;-73
2023/08/25 12:36:15;;;;;;;4.30;3.87;;;23.60;86.60;;;;;;6297330;22;20404;-72
2023/08/25 12:38:43;;;;;;;4.70;4.30;;;23.60;86.90;;;;;;6298604;22;20451;-72
2023/08/25 12:41:11;;;;;;;5.47;4.23;;;23.60;87.40;;;;;;6298322;22;20404;-72
2023/08/25 12:43:40;;;;;;;5.23;4.73;;;23.60;87.40;;;;;;6295736;22;20498;-72
2023/08/25 12:46:08;;;;;;;4.67;4.27;;;23.60;87.50;;;;;;6272586;22;20385;-72
2023/08/25 12:48:36;;;;;;;3.70;3.40;;;23.60;87.50;;;;;;6297644;22;20842;-72
2023/08/25 12:51:05;;;;;;;4.23;3.63;;;23.50;87.60;;;;;;6296685;22;20377;-72
2023/08/25 12:53:35;;;;;;;4.60;3.60;;;23.60;87.80;;;;;;6349502;22;20896;-72
2023/08/25 12:56:03;;;;;;;4.03;3.73;;;23.60;87.90;;;;;;6298391;22;20416;-72
2023/08/25 12:58:31;;;;;;;4.00;2.97;;;23.60;88.00;;;;;;6298901;22;20968;-72
2023/08/25 13:01:03;;;;;;;3.40;3.10;;;23.60;88.00;;;;;;6297418;22;20466;-72
2023/08/25 13:03:31;;;;;;;3.63;2.80;;;23.60;88.10;;;;;;6296999;22;21110;-73